Albert, Oklahoma
Current Conditions -  °F | °C
As of 10:35 PM on Wednesday 26 Nov 2014 (Local Time) from KOJA Reporting Station
Clear Clear  
Wind Chill: 30°   Ceiling: Unl
Heat Index: 34°   Visibility: 10mi
Dew Point: 21°   Wind: 5mph
Humidity: 60%   Direction: 360°N
Pressure: 30.43"   Gusts: NA
Location:  35.23°N, 98.41°W
Report Text: KOJA 270435Z AUTO 36004KT 10SM CLR 01/M06 A3043 RMK AO2
Loading
Personal Weather Stations






























Interactive Weather Map New forecast layout! Learn more

10-Day Weather Forecast

Advertisements
Track Severe Weather on mobile